Time;durP1;ratioP1;P1;durP2;ratioP2;P2;SDS_P1;SDS_P2;PMS_P1;PMS_P2;Temp;Humidity;BMP_temperature;BMP_pressure;BME280_temperature;BME280_humidity;BME280_pressure;Samples;Min_cycle;Max_cycle;Signal;HPM_P1;HPM_P2
2022/08/03 00:02:02;;;;;;;2.30;2.05;;;18.30;99.90;;;;;;5027790;28;20084;-72
2022/08/03 00:04:34;;;;;;;2.20;1.70;;;18.30;99.90;;;;;;5029878;28;20140;-72
2022/08/03 00:07:06;;;;;;;2.88;2.20;;;18.30;99.90;;;;;;5036025;28;20382;-72
2022/08/03 00:09:37;;;;;;;2.40;1.63;;;18.20;99.90;;;;;;5043136;28;20037;-72
2022/08/03 00:12:10;;;;;;;2.15;1.77;;;18.20;99.90;;;;;;5025907;28;20045;-72
2022/08/03 00:14:41;;;;;;;2.22;1.92;;;18.20;99.90;;;;;;5040096;28;20041;-72
2022/08/03 00:17:13;;;;;;;2.60;1.90;;;18.10;99.90;;;;;;5025549;28;20106;-72
2022/08/03 00:19:45;;;;;;;3.17;1.65;;;18.10;99.90;;;;;;5051439;28;20515;-71
2022/08/03 00:22:17;;;;;;;2.10;1.70;;;18.00;99.90;;;;;;5061004;23;20136;-71
2022/08/03 00:24:49;;;;;;;2.55;1.50;;;18.00;99.90;;;;;;5008761;28;20040;-72
2022/08/03 00:27:21;;;;;;;2.45;2.10;;;18.00;99.90;;;;;;4994607;28;20047;-72
2022/08/03 00:29:53;;;;;;;4.00;2.00;;;18.00;99.90;;;;;;5012128;28;20515;-73
2022/08/03 00:32:24;;;;;;;1.90;1.73;;;18.00;99.90;;;;;;5006185;28;20046;-73
2022/08/03 00:34:56;;;;;;;3.25;1.80;;;18.00;99.90;;;;;;5011594;28;20052;-73
2022/08/03 00:37:28;;;;;;;2.47;1.90;;;18.00;99.90;;;;;;5000986;28;20049;-72
2022/08/03 00:40:00;;;;;;;2.58;1.80;;;18.00;99.90;;;;;;5012038;28;20049;-73
2022/08/03 00:42:31;;;;;;;3.45;1.88;;;18.00;99.90;;;;;;5006978;28;20042;-73
2022/08/03 00:45:03;;;;;;;2.53;1.95;;;18.00;99.90;;;;;;5010537;28;20099;-72
2022/08/03 00:47:35;;;;;;;2.03;1.75;;;18.10;99.90;;;;;;4990836;28;20061;-72
2022/08/03 00:50:07;;;;;;;1.90;1.60;;;18.00;99.90;;;;;;5002686;28;20045;-72
2022/08/03 00:52:39;;;;;;;2.97;2.10;;;17.90;99.90;;;;;;5010415;28;20042;-73
2022/08/03 00:55:11;;;;;;;3.45;1.98;;;17.90;99.90;;;;;;5011173;28;20048;-73
2022/08/03 00:57:43;;;;;;;2.47;1.95;;;17.90;99.90;;;;;;5010208;28;21036;-72
2022/08/03 01:00:17;;;;;;;2.45;2.03;;;17.90;99.90;;;;;;4993870;28;20046;-72
2022/08/03 01:02:49;;;;;;;2.40;1.85;;;17.80;99.90;;;;;;5010097;28;20042;-72
2022/08/03 01:05:21;;;;;;;2.33;2.13;;;17.80;99.90;;;;;;4990507;28;20056;-73
2022/08/03 01:08:14;;;;;;;4.25;1.92;;;17.70;99.90;;;;;;4990315;28;20394;-73
2022/08/03 01:11:00;;;;;;;2.17;1.90;;;17.70;99.90;;;;;;5010572;28;20045;-73
2022/08/03 01:13:43;;;;;;;2.25;2.05;;;17.60;99.90;;;;;;5007623;28;20052;-72
2022/08/03 01:16:18;;;;;;;2.63;1.77;;;17.50;99.90;;;;;;5010783;28;20038;-73
2022/08/03 01:19:15;;;;;;;3.38;1.90;;;17.50;99.90;;;;;;5010018;28;20549;-73
2022/08/03 01:21:53;;;;;;;3.65;2.30;;;17.50;99.90;;;;;;5008605;28;20038;-73
2022/08/03 01:24:43;;;;;;;2.80;2.08;;;17.50;99.90;;;;;;5015426;28;20053;-74
2022/08/03 01:27:22;;;;;;;2.15;1.95;;;17.60;99.90;;;;;;5034062;28;20049;-72
2022/08/03 01:30:02;;;;;;;2.03;1.88;;;17.60;99.90;;;;;;5030750;28;20441;-73
2022/08/03 01:32:45;;;;;;;3.70;2.35;;;17.60;99.90;;;;;;5027637;28;20045;-72
2022/08/03 01:35:25;;;;;;;2.85;2.35;;;17.70;99.90;;;;;;5033696;28;20040;-72
2022/08/03 01:38:02;;;;;;;2.30;2.05;;;17.70;99.90;;;;;;5032389;28;20482;-73
2022/08/03 01:40:35;;;;;;;2.45;1.77;;;17.70;99.90;;;;;;5029133;28;20033;-72
2022/08/03 01:43:12;;;;;;;3.22;2.50;;;17.70;99.90;;;;;;5030530;28;20080;-73
2022/08/03 01:45:44;;;;;;;2.10;1.90;;;17.70;99.90;;;;;;5031458;28;20042;-72
2022/08/03 01:48:17;;;;;;;2.50;2.10;;;17.60;99.90;;;;;;5029357;28;20048;-72
2022/08/03 01:50:51;;;;;;;2.75;2.45;;;17.70;99.90;;;;;;5030328;28;20509;-73
2022/08/03 01:53:24;;;;;;;2.53;1.98;;;17.70;99.90;;;;;;5027823;28;20045;-73
2022/08/03 01:55:57;;;;;;;2.60;2.40;;;17.60;99.90;;;;;;5031213;28;20052;-73
2022/08/03 01:58:33;;;;;;;3.00;2.00;;;17.60;99.90;;;;;;5026929;28;20042;-72
2022/08/03 02:01:07;;;;;;;3.08;2.25;;;17.60;99.90;;;;;;5030462;28;20099;-73
2022/08/03 02:03:42;;;;;;;2.05;1.80;;;17.50;99.90;;;;;;5027805;28;20144;-73
2022/08/03 02:06:15;;;;;;;3.78;2.05;;;17.50;99.90;;;;;;5033401;28;20040;-72
2022/08/03 02:08:49;;;;;;;2.33;2.08;;;17.40;99.90;;;;;;5027779;28;20053;-72
2022/08/03 02:11:22;;;;;;;2.03;1.83;;;17.20;99.90;;;;;;5028314;28;20125;-72
2022/08/03 02:13:55;;;;;;;2.72;2.38;;;17.20;99.90;;;;;;5030093;28;20044;-73
2022/08/03 02:16:27;;;;;;;2.60;1.98;;;17.10;99.90;;;;;;5030966;28;20042;-73
2022/08/03 02:19:03;;;;;;;2.72;1.75;;;17.10;99.90;;;;;;5027033;28;20041;-73
2022/08/03 02:21:36;;;;;;;4.13;2.00;;;17.10;99.90;;;;;;5027257;28;20052;-73
2022/08/03 02:24:08;;;;;;;2.55;1.90;;;17.10;99.90;;;;;;5013652;28;20099;-73
2022/08/03 02:26:42;;;;;;;5.15;2.13;;;17.00;99.90;;;;;;4997566;28;20074;-72
2022/08/03 02:29:19;;;;;;;3.78;1.73;;;16.90;99.90;;;;;;5008124;28;20497;-73
2022/08/03 02:31:53;;;;;;;1.98;1.70;;;16.90;99.90;;;;;;5008467;28;20061;-73
2022/08/03 02:34:27;;;;;;;2.47;1.65;;;16.90;99.90;;;;;;5011784;28;20042;-73
2022/08/03 02:36:59;;;;;;;2.58;1.95;;;16.90;99.90;;;;;;5012622;28;20497;-74
2022/08/03 02:39:33;;;;;;;3.65;2.03;;;16.80;99.90;;;;;;5009663;28;20076;-71
2022/08/03 02:42:09;;;;;;;4.03;1.73;;;16.80;99.90;;;;;;5007555;28;20048;-73
2022/08/03 02:44:46;;;;;;;5.10;1.75;;;16.80;99.90;;;;;;5011957;28;20052;-72
2022/08/03 02:47:20;;;;;;;2.90;2.00;;;16.80;99.90;;;;;;4990841;28;20505;-73
2022/08/03 02:49:54;;;;;;;2.42;1.95;;;16.80;99.90;;;;;;4997409;28;20054;-74
2022/08/03 02:52:29;;;;;;;3.15;1.70;;;16.80;99.90;;;;;;4988361;28;20039;-72
2022/08/03 02:55:03;;;;;;;2.20;2.00;;;16.80;99.90;;;;;;5011979;28;20069;-73
2022/08/03 02:57:36;;;;;;;2.00;1.80;;;16.80;99.90;;;;;;5003197;28;20057;-71
2022/08/03 03:00:08;;;;;;;2.45;1.80;;;16.70;99.90;;;;;;5000810;28;20057;-71
2022/08/03 03:02:41;;;;;;;3.30;2.10;;;16.70;99.90;;;;;;5008913;28;20277;-71
2022/08/03 03:05:14;;;;;;;2.28;1.92;;;16.60;99.90;;;;;;5010485;28;20045;-72
2022/08/03 03:07:46;;;;;;;2.05;1.80;;;16.60;99.90;;;;;;4997659;28;20037;-71
2022/08/03 03:10:20;;;;;;;2.63;2.00;;;16.60;99.90;;;;;;5014338;28;20046;-71
2022/08/03 03:12:51;;;;;;;2.03;1.83;;;16.60;99.90;;;;;;5009090;28;20129;-71
2022/08/03 03:15:24;;;;;;;2.13;1.90;;;16.50;99.90;;;;;;5014965;28;20037;-71
2022/08/03 03:17:57;;;;;;;2.45;2.25;;;16.50;99.90;;;;;;4996706;28;20042;-71
2022/08/03 03:20:25;;;;;;;1.85;1.60;;;16.50;99.90;;;;;;4996435;28;20045;-71
2022/08/03 03:22:59;;;;;;;2.03;1.80;;;16.50;99.90;;;;;;5002979;28;20064;-71
2022/08/03 03:25:32;;;;;;;2.55;1.70;;;16.50;99.90;;;;;;5033100;28;20052;-71
2022/08/03 03:28:05;;;;;;;4.35;1.75;;;16.50;99.90;;;;;;5023850;28;20744;-71
2022/08/03 03:30:37;;;;;;;2.17;1.98;;;16.50;99.90;;;;;;5031610;28;20524;-70
2022/08/03 03:33:09;;;;;;;1.75;1.65;;;16.40;99.90;;;;;;5032670;28;20497;-71
2022/08/03 03:35:43;;;;;;;3.20;1.80;;;16.40;99.90;;;;;;5032532;28;20616;-72
2022/08/03 03:38:15;;;;;;;3.28;1.80;;;16.40;99.90;;;;;;5030750;28;20052;-71
2022/08/03 03:40:47;;;;;;;3.30;1.90;;;16.30;99.90;;;;;;5015986;28;20050;-71
2022/08/03 03:43:21;;;;;;;2.42;1.92;;;16.30;99.90;;;;;;5021989;28;20045;-71
2022/08/03 03:45:54;;;;;;;2.85;1.65;;;16.30;99.90;;;;;;5032679;28;20409;-71
2022/08/03 03:48:26;;;;;;;1.85;1.42;;;16.30;99.90;;;;;;5032376;28;20037;-71
2022/08/03 03:50:59;;;;;;;2.22;1.75;;;16.30;99.90;;;;;;5033586;28;20060;-71
2022/08/03 03:53:31;;;;;;;3.50;1.90;;;16.20;99.90;;;;;;5032373;28;20091;-71
2022/08/03 03:56:03;;;;;;;2.65;1.63;;;16.30;99.90;;;;;;5032248;28;20582;-70
2022/08/03 03:58:34;;;;;;;4.18;2.05;;;16.20;99.90;;;;;;4997525;28;20406;-71
2022/08/03 04:01:07;;;;;;;5.45;2.05;;;16.20;99.90;;;;;;5033448;28;20379;-71
2022/08/03 04:03:39;;;;;;;3.58;1.92;;;16.20;99.90;;;;;;5010443;28;20046;-71
2022/08/03 04:11:56;;;;;;;2.38;2.00;;;16.10;99.90;;;;;;5014684;28;20501;-70
2022/08/03 04:14:33;;;;;;;2.50;2.08;;;16.10;99.90;;;;;;5031122;28;20064;-71
2022/08/03 04:17:07;;;;;;;3.35;2.10;;;16.10;99.90;;;;;;5031554;28;20403;-71
2022/08/03 04:19:50;;;;;;;5.30;2.00;;;16.10;99.90;;;;;;5014141;28;20039;-71
2022/08/03 04:22:28;;;;;;;2.13;1.77;;;16.10;99.90;;;;;;5026208;28;20052;-71
2022/08/03 04:25:04;;;;;;;2.80;1.90;;;16.10;99.90;;;;;;5014594;28;20052;-71
2022/08/03 04:27:39;;;;;;;2.20;1.70;;;16.10;99.90;;;;;;5011801;28;20048;-71
2022/08/03 04:30:11;;;;;;;2.47;1.88;;;16.10;99.90;;;;;;4996938;28;20076;-71
2022/08/03 04:32:50;;;;;;;2.92;2.00;;;16.10;99.90;;;;;;4993703;28;20038;-71
2022/08/03 04:35:24;;;;;;;2.65;1.60;;;16.10;99.90;;;;;;5011685;28;20050;-71
2022/08/03 04:38:01;;;;;;;2.92;2.10;;;16.10;99.90;;;;;;4995248;28;20052;-71
2022/08/03 04:40:36;;;;;;;1.92;1.40;;;16.10;99.90;;;;;;5010760;28;20072;-71
2022/08/03 04:43:10;;;;;;;1.98;1.77;;;16.20;99.90;;;;;;4993905;28;20060;-70
2022/08/03 04:45:45;;;;;;;1.75;1.60;;;16.20;99.90;;;;;;5014487;28;20046;-71
2022/08/03 04:48:18;;;;;;;6.35;2.08;;;16.20;99.90;;;;;;5010542;28;20042;-71
2022/08/03 04:50:52;;;;;;;3.40;2.65;;;16.20;99.90;;;;;;5012891;28;20056;-71
2022/08/03 04:53:23;;;;;;;4.28;1.85;;;16.20;99.90;;;;;;5008911;28;20049;-71
2022/08/03 04:56:03;;;;;;;2.33;1.80;;;16.30;99.90;;;;;;5014911;28;20458;-71
2022/08/03 04:58:35;;;;;;;2.30;1.92;;;16.30;99.90;;;;;;5011615;28;20045;-72
2022/08/03 05:01:06;;;;;;;2.47;1.83;;;16.30;99.90;;;;;;5012539;28;20042;-71
2022/08/03 05:03:38;;;;;;;5.07;1.95;;;16.40;99.90;;;;;;5010543;28;20069;-71
2022/08/03 05:06:10;;;;;;;3.25;2.10;;;16.40;99.90;;;;;;5014515;28;20069;-71
2022/08/03 05:08:42;;;;;;;2.30;2.10;;;16.40;99.90;;;;;;5012408;28;20046;-71
2022/08/03 05:11:15;;;;;;;3.72;2.28;;;16.40;99.90;;;;;;4994677;28;20050;-71
2022/08/03 05:13:46;;;;;;;7.07;2.00;;;16.40;99.90;;;;;;5008948;28;20045;-71
2022/08/03 05:16:18;;;;;;;2.05;1.80;;;16.50;99.90;;;;;;5014103;28;20068;-71
2022/08/03 05:18:45;;;;;;;4.05;2.05;;;16.50;99.90;;;;;;4994837;28;20050;-70
2022/08/03 05:21:17;;;;;;;2.40;2.20;;;16.50;99.90;;;;;;5012284;28;20041;-71
2022/08/03 05:23:48;;;;;;;6.07;2.72;;;16.60;99.90;;;;;;5000474;28;20133;-71
2022/08/03 05:26:20;;;;;;;8.63;2.25;;;16.60;99.90;;;;;;5031125;28;20528;-71
2022/08/03 05:28:52;;;;;;;6.10;3.08;;;16.70;99.90;;;;;;5029631;28;20134;-71
2022/08/03 05:31:23;;;;;;;7.40;2.65;;;16.70;99.90;;;;;;5031539;28;20049;-71
2022/08/03 05:33:56;;;;;;;8.15;2.72;;;16.70;99.90;;;;;;5027614;28;20045;-70
2022/08/03 05:36:28;;;;;;;11.65;2.72;;;16.70;99.90;;;;;;5014305;28;20044;-72
2022/08/03 05:38:59;;;;;;;4.25;2.50;;;16.80;99.90;;;;;;5030377;28;20037;-71
2022/08/03 05:41:31;;;;;;;3.45;2.40;;;16.90;99.90;;;;;;5029272;28;20048;-70
2022/08/03 05:44:03;;;;;;;3.97;2.58;;;16.90;99.90;;;;;;5012108;28;20059;-71
2022/08/03 05:46:35;;;;;;;5.00;2.35;;;17.00;99.90;;;;;;5012343;28;20045;-71
2022/08/03 05:49:07;;;;;;;3.70;2.53;;;17.00;99.90;;;;;;5017218;28;20060;-71
2022/08/03 05:51:38;;;;;;;3.30;2.60;;;17.10;99.90;;;;;;5028153;28;20517;-71
2022/08/03 05:54:10;;;;;;;3.45;2.80;;;17.20;99.90;;;;;;5027823;28;20406;-71
2022/08/03 05:56:42;;;;;;;4.82;3.10;;;17.20;99.90;;;;;;5030472;28;20041;-71
2022/08/03 05:59:14;;;;;;;3.60;2.53;;;17.30;99.90;;;;;;5016427;28;20040;-73
2022/08/03 06:01:46;;;;;;;4.50;3.00;;;17.30;99.90;;;;;;5016567;28;20128;-72
2022/08/03 06:04:18;;;;;;;6.95;3.20;;;17.40;99.90;;;;;;5029052;28;20037;-74
2022/08/03 06:06:50;;;;;;;2.90;2.60;;;17.40;99.90;;;;;;5027897;28;20038;-73
2022/08/03 06:09:22;;;;;;;5.45;3.85;;;17.50;99.90;;;;;;5012806;28;20045;-74
2022/08/03 06:11:53;;;;;;;6.50;5.78;;;17.60;99.90;;;;;;5030561;28;20101;-73
2022/08/03 06:14:25;;;;;;;10.73;9.73;;;17.60;99.90;;;;;;5028417;28;20057;-73
2022/08/03 06:16:57;;;;;;;6.57;5.97;;;17.70;99.90;;;;;;5028900;28;20041;-74
2022/08/03 06:19:28;;;;;;;4.20;3.80;;;17.70;99.90;;;;;;5028746;28;20049;-71
2022/08/03 06:22:00;;;;;;;4.15;3.72;;;17.80;99.90;;;;;;5028126;28;20029;-71
2022/08/03 06:24:32;;;;;;;4.93;3.33;;;17.90;99.90;;;;;;5007834;28;20053;-72
2022/08/03 06:26:59;;;;;;;5.22;4.03;;;17.90;99.90;;;;;;5007017;28;20073;-72
2022/08/03 06:29:30;;;;;;;5.22;4.70;;;17.90;99.90;;;;;;4992462;28;20498;-71
2022/08/03 06:32:02;;;;;;;5.38;4.53;;;18.00;99.90;;;;;;4989402;28;20518;-72
2022/08/03 06:34:34;;;;;;;6.68;4.68;;;18.10;99.90;;;;;;4991129;28;20054;-72
2022/08/03 06:37:06;;;;;;;4.90;4.25;;;18.10;99.90;;;;;;5059994;23;20132;-89
2022/08/03 06:39:32;;;;;;;6.88;4.43;;;18.20;99.90;;;;;;5040170;28;20445;-89
2022/08/03 06:41:59;;;;;;;7.40;5.15;;;18.40;99.90;;;;;;5044539;28;20064;-89
2022/08/03 06:44:32;;;;;;;5.35;4.57;;;18.40;99.90;;;;;;5037028;28;20040;-88
2022/08/03 06:47:04;;;;;;;7.68;4.88;;;18.50;99.90;;;;;;5041594;28;20041;-89
2022/08/03 06:49:30;;;;;;;4.57;4.18;;;18.60;99.90;;;;;;5047738;23;20144;-70
2022/08/03 06:52:02;;;;;;;4.57;4.18;;;18.70;99.90;;;;;;5028926;28;20520;-71
2022/08/03 06:54:34;;;;;;;4.88;4.10;;;18.80;99.90;;;;;;5019469;28;20041;-70
2022/08/03 06:57:07;;;;;;;6.47;4.07;;;18.90;99.90;;;;;;5023360;28;20123;-71
2022/08/03 06:59:38;;;;;;;3.63;3.33;;;19.00;99.90;;;;;;5022698;28;20050;-71
2022/08/03 07:02:10;;;;;;;6.43;4.28;;;19.10;99.90;;;;;;5025820;28;20037;-71
2022/08/03 07:04:37;;;;;;;5.15;3.80;;;19.20;99.90;;;;;;4999955;28;20054;-71
2022/08/03 07:07:09;;;;;;;5.45;3.70;;;19.20;99.90;;;;;;5018131;28;20038;-71
2022/08/03 07:09:40;;;;;;;6.40;4.50;;;19.40;99.90;;;;;;5022939;28;20426;-69
2022/08/03 07:12:12;;;;;;;5.57;3.80;;;19.50;99.90;;;;;;5022976;28;20046;-70
2022/08/03 07:14:44;;;;;;;4.47;3.45;;;19.60;99.90;;;;;;5021442;28;20041;-70
2022/08/03 07:17:16;;;;;;;5.10;3.97;;;19.70;99.90;;;;;;5005154;28;20417;-71
2022/08/03 07:19:48;;;;;;;4.32;3.92;;;19.90;99.90;;;;;;5029423;28;20064;-71
2022/08/03 07:22:20;;;;;;;4.28;3.88;;;20.00;99.90;;;;;;5030945;28;20049;-71
2022/08/03 07:24:52;;;;;;;4.68;4.28;;;20.10;99.90;;;;;;5031325;28;20049;-71
2022/08/03 07:27:25;;;;;;;5.00;3.60;;;20.20;99.90;;;;;;5005470;28;20724;-70
2022/08/03 07:29:57;;;;;;;;;;;20.30;99.90;;;;;;5045264;28;20050;-71
2022/08/03 07:32:27;;;;;;;5.10;3.95;;;20.50;99.90;;;;;;5014339;28;19921;-71
2022/08/03 07:34:53;;;;;;;3.83;3.17;;;20.60;99.90;;;;;;5012973;28;20033;-71
2022/08/03 07:37:25;;;;;;;6.18;3.47;;;20.70;99.90;;;;;;5011532;28;20065;-71
2022/08/03 07:39:58;;;;;;;5.07;3.17;;;20.80;99.90;;;;;;5014533;28;20064;-72
2022/08/03 07:42:31;;;;;;;3.10;2.80;;;20.90;99.90;;;;;;4995038;28;20069;-71
2022/08/03 07:45:03;;;;;;;3.60;3.00;;;21.10;99.90;;;;;;5010241;28;20037;-70
2022/08/03 07:47:35;;;;;;;3.80;3.00;;;21.20;99.90;;;;;;5008514;28;20128;-71
2022/08/03 07:50:02;;;;;;;3.60;2.58;;;21.40;99.90;;;;;;5025598;28;20049;-71
2022/08/03 07:52:47;;;;;;;3.38;2.47;;;21.50;99.90;;;;;;5040838;28;20045;-71
2022/08/03 07:55:20;;;;;;;2.58;2.30;;;21.60;99.90;;;;;;5029654;28;20068;-72
2022/08/03 07:58:21;;;;;;;3.65;2.90;;;21.80;99.90;;;;;;5019400;28;20468;-71
2022/08/03 08:00:53;;;;;;;2.35;2.15;;;22.00;99.90;;;;;;5051225;28;20060;-71
2022/08/03 08:03:25;;;;;;;3.05;2.63;;;22.10;99.90;;;;;;5021943;28;20049;-73
2022/08/03 08:05:57;;;;;;;3.63;2.08;;;22.30;99.90;;;;;;5039012;28;20037;-72
2022/08/03 08:08:28;;;;;;;2.97;2.20;;;22.50;99.90;;;;;;5026033;28;20041;-71
2022/08/03 08:11:00;;;;;;;3.17;2.10;;;22.70;99.90;;;;;;5019254;28;20504;-71
2022/08/03 08:13:32;;;;;;;2.70;2.40;;;22.90;99.90;;;;;;5033235;28;20446;-71
2022/08/03 08:16:05;;;;;;;3.75;2.40;;;23.00;99.90;;;;;;5036290;28;20026;-70
2022/08/03 08:18:33;;;;;;;3.60;2.33;;;23.20;99.90;;;;;;5018021;28;20480;-71
2022/08/03 08:21:04;;;;;;;2.05;1.70;;;23.40;99.90;;;;;;5036160;28;20047;-70
2022/08/03 08:23:36;;;;;;;3.67;2.40;;;23.50;99.90;;;;;;5035764;28;20567;-71
2022/08/03 08:26:08;;;;;;;2.10;1.88;;;23.70;99.90;;;;;;5022512;28;20052;-70
2022/08/03 08:28:40;;;;;;;4.05;1.70;;;23.80;99.90;;;;;;5018378;28;20049;-70
2022/08/03 08:31:11;;;;;;;3.60;1.92;;;24.00;99.90;;;;;;5040589;28;20033;-71
2022/08/03 08:33:43;;;;;;;2.08;1.88;;;24.20;99.90;;;;;;5048807;28;20048;-71
2022/08/03 08:36:15;;;;;;;1.95;1.73;;;24.30;99.90;;;;;;5022221;28;20048;-71
2022/08/03 08:38:47;;;;;;;2.33;1.40;;;24.40;99.90;;;;;;5005819;28;20068;-71
2022/08/03 08:41:19;;;;;;;2.37;1.90;;;24.60;99.90;;;;;;5040527;28;20037;-71
2022/08/03 08:43:51;;;;;;;1.75;1.50;;;24.80;99.90;;;;;;5041634;28;20040;-71
2022/08/03 08:46:22;;;;;;;2.65;1.73;;;24.90;99.90;;;;;;5001452;28;20045;-71
2022/08/03 08:48:55;;;;;;;1.77;1.48;;;25.00;99.90;;;;;;5020845;28;20478;-72
2022/08/03 08:51:29;;;;;;;1.85;1.60;;;25.20;99.90;;;;;;5039805;28;20048;-71
2022/08/03 08:54:03;;;;;;;1.60;1.15;;;25.30;99.90;;;;;;5038652;28;20485;-71
2022/08/03 08:56:37;;;;;;;1.60;1.27;;;25.40;99.90;;;;;;5018776;28;20183;-71
2022/08/03 08:59:09;;;;;;;3.38;1.25;;;25.50;99.90;;;;;;5032623;28;20050;-73
2022/08/03 09:01:43;;;;;;;3.50;1.20;;;25.60;99.90;;;;;;5033216;28;20485;-71
2022/08/03 09:04:15;;;;;;;4.55;2.15;;;25.70;99.90;;;;;;5032881;28;20504;-70
2022/08/03 09:06:47;;;;;;;1.13;0.95;;;25.90;99.90;;;;;;5032552;28;20060;-71
2022/08/03 09:09:14;;;;;;;1.95;1.30;;;26.00;99.90;;;;;;5019103;28;20056;-71
2022/08/03 09:11:48;;;;;;;1.38;1.13;;;26.10;99.90;;;;;;5032365;28;20063;-70
2022/08/03 09:14:20;;;;;;;1.83;1.05;;;26.20;99.90;;;;;;5041407;28;20049;-73
2022/08/03 09:17:00;;;;;;;1.30;0.95;;;26.40;99.90;;;;;;5030694;28;20048;-71
2022/08/03 09:19:34;;;;;;;2.17;1.30;;;26.50;99.90;;;;;;5037822;28;20137;-71
2022/08/03 09:22:17;;;;;;;2.85;1.10;;;26.60;99.90;;;;;;5034692;28;20485;-72
2022/08/03 09:24:56;;;;;;;2.40;1.17;;;26.70;99.90;;;;;;5031427;28;20091;-71
2022/08/03 09:27:29;;;;;;;1.95;1.00;;;26.80;99.80;;;;;;5036178;28;20049;-72
2022/08/03 09:30:00;;;;;;;1.60;1.13;;;27.00;99.90;;;;;;5020465;28;20497;-71
2022/08/03 09:32:27;;;;;;;2.72;1.30;;;27.00;99.70;;;;;;5015986;28;20059;-72
2022/08/03 09:35:03;;;;;;;2.17;1.05;;;27.10;98.90;;;;;;5039651;28;20041;-71
2022/08/03 09:37:35;;;;;;;2.28;1.15;;;27.30;98.60;;;;;;4993951;28;20049;-71
2022/08/03 09:40:08;;;;;;;1.90;0.98;;;27.30;97.10;;;;;;5032960;28;20033;-71
2022/08/03 09:42:55;;;;;;;1.45;1.00;;;27.50;96.40;;;;;;5016309;28;20041;-71
2022/08/03 09:45:28;;;;;;;1.73;1.05;;;27.60;96.30;;;;;;5016081;28;20134;-72
2022/08/03 09:48:27;;;;;;;2.45;1.10;;;27.70;95.30;;;;;;5032320;28;20042;-71
2022/08/03 09:51:00;;;;;;;1.88;1.10;;;27.80;94.20;;;;;;4997842;28;20885;-71
2022/08/03 09:53:45;;;;;;;2.33;1.27;;;28.00;94.50;;;;;;5019000;28;20457;-71
2022/08/03 09:56:16;;;;;;;1.35;1.10;;;28.10;94.20;;;;;;5030714;28;20056;-70
2022/08/03 09:58:49;;;;;;;1.75;1.00;;;28.20;94.00;;;;;;5032201;28;20042;-72
2022/08/03 10:01:16;;;;;;;2.33;1.05;;;28.20;93.70;;;;;;5031738;28;20128;-71
2022/08/03 10:03:57;;;;;;;1.25;0.90;;;28.20;92.50;;;;;;5030518;28;20072;-71
2022/08/03 10:06:29;;;;;;;1.60;1.13;;;28.30;91.40;;;;;;5019386;28;20048;-71
2022/08/03 10:09:15;;;;;;;2.83;1.13;;;28.30;92.70;;;;;;5017462;28;20051;-72
2022/08/03 10:11:48;;;;;;;1.73;1.00;;;28.40;91.70;;;;;;5033848;28;20124;-72
2022/08/03 10:14:21;;;;;;;1.00;0.90;;;28.50;91.30;;;;;;5019234;28;20033;-72
2022/08/03 10:16:53;;;;;;;2.00;1.08;;;28.60;89.00;;;;;;5018703;28;20501;-73
2022/08/03 10:19:24;;;;;;;4.22;1.05;;;28.70;90.60;;;;;;5037190;28;20131;-71
2022/08/03 10:22:02;;;;;;;2.47;1.10;;;28.80;89.60;;;;;;5044836;28;20052;-73
2022/08/03 10:24:37;;;;;;;0.95;0.88;;;29.00;88.50;;;;;;5035341;28;20472;-71
2022/08/03 10:27:12;;;;;;;1.40;0.88;;;29.10;87.40;;;;;;5035196;28;20037;-71
2022/08/03 10:29:49;;;;;;;1.38;1.13;;;29.20;83.60;;;;;;5046126;28;20041;-72
2022/08/03 10:32:43;;;;;;;1.30;0.90;;;29.20;84.20;;;;;;5038772;28;20049;-72
2022/08/03 10:35:18;;;;;;;1.00;0.90;;;29.30;85.20;;;;;;5020736;28;20053;-71
2022/08/03 10:37:56;;;;;;;1.40;1.10;;;29.30;85.20;;;;;;5035872;28;20037;-74
2022/08/03 10:40:32;;;;;;;1.88;1.10;;;29.50;85.80;;;;;;5037181;28;20384;-71
2022/08/03 10:43:10;;;;;;;1.45;1.13;;;29.50;82.00;;;;;;5045412;28;20083;-71
2022/08/03 10:45:43;;;;;;;2.30;1.25;;;29.60;82.90;;;;;;5034897;28;20075;-71
2022/08/03 10:48:17;;;;;;;1.13;1.00;;;29.60;80.90;;;;;;5036259;28;20045;-72
2022/08/03 10:50:49;;;;;;;2.35;0.90;;;29.70;82.20;;;;;;5030083;28;20154;-71
2022/08/03 10:53:38;;;;;;;;;;;29.80;81.90;;;;;;5025513;28;20044;-72
2022/08/03 10:59:44;;;;;;;1.48;1.00;;;30.00;80.20;;;;;;5038120;28;20052;-71
2022/08/03 11:02:16;;;;;;;1.10;1.00;;;29.90;77.80;;;;;;5038239;28;20049;-71
2022/08/03 11:05:24;;;;;;;1.00;0.90;;;29.90;77.00;;;;;;5041032;28;20049;-73
2022/08/03 11:08:27;;;;;;;1.23;1.13;;;29.90;73.90;;;;;;5019574;28;20049;-71
2022/08/03 11:11:17;;;;;;;1.65;1.00;;;29.90;75.60;;;;;;5036199;28;20501;-72
2022/08/03 11:14:19;;;;;;;2.00;0.95;;;29.90;75.30;;;;;;5044903;28;20057;-73
2022/08/03 11:17:11;;;;;;;1.77;1.23;;;29.90;74.40;;;;;;5030321;28;20517;-71
2022/08/03 11:19:45;;;;;;;1.25;1.00;;;30.10;74.40;;;;;;5034819;28;20049;-70
2022/08/03 11:22:19;;;;;;;1.20;0.90;;;30.20;74.40;;;;;;5039807;28;20033;-70
2022/08/03 11:24:53;;;;;;;1.73;1.27;;;30.40;76.50;;;;;;5029980;28;20476;-70
2022/08/03 11:27:29;;;;;;;1.35;1.20;;;30.50;72.00;;;;;;5034850;28;20401;-71
2022/08/03 11:30:09;;;;;;;1.00;0.88;;;30.60;69.20;;;;;;5042817;28;20049;-72
2022/08/03 11:32:46;;;;;;;3.42;0.90;;;30.50;68.50;;;;;;5040708;28;20045;-71
2022/08/03 11:35:23;;;;;;;1.00;0.90;;;30.60;70.50;;;;;;5027550;28;20512;-70
2022/08/03 11:38:04;;;;;;;1.00;0.90;;;30.60;70.00;;;;;;5032344;28;20049;-71
2022/08/03 11:40:39;;;;;;;1.05;0.80;;;30.70;71.70;;;;;;5034248;28;20037;-71
2022/08/03 11:43:29;;;;;;;1.25;1.10;;;30.80;70.50;;;;;;5035154;28;20037;-73
2022/08/03 11:46:07;;;;;;;2.80;1.42;;;30.90;68.00;;;;;;5011855;28;20070;-72
2022/08/03 11:48:41;;;;;;;1.08;0.98;;;30.90;67.90;;;;;;5035243;28;20072;-71
2022/08/03 11:51:25;;;;;;;2.70;1.00;;;30.90;67.40;;;;;;5038860;28;20049;-71
2022/08/03 11:54:05;;;;;;;1.38;1.00;;;30.90;69.40;;;;;;5042166;28;20041;-72
2022/08/03 11:56:48;;;;;;;1.27;0.85;;;31.10;68.00;;;;;;5034431;28;20048;-71
2022/08/03 11:59:30;;;;;;;;;;;31.20;67.00;;;;;;5035186;28;20045;-71
2022/08/03 12:02:15;;;;;;;1.35;0.98;;;31.20;64.30;;;;;;5016243;28;19921;-70
2022/08/03 12:05:00;;;;;;;1.48;1.05;;;31.10;64.30;;;;;;5032989;28;20052;-72
2022/08/03 12:07:31;;;;;;;1.85;1.20;;;31.10;63.80;;;;;;5037513;28;20037;-71
2022/08/03 12:10:13;;;;;;;3.67;1.40;;;31.20;64.70;;;;;;5040139;28;20074;-71
2022/08/03 12:12:53;;;;;;;0.95;0.77;;;31.10;59.10;;;;;;5037792;28;20045;-72
2022/08/03 12:15:35;;;;;;;1.90;1.05;;;31.00;60.40;;;;;;5039646;28;20037;-72
2022/08/03 12:18:15;;;;;;;2.03;0.93;;;31.20;64.00;;;;;;5039132;28;20041;-71
2022/08/03 12:20:50;;;;;;;1.30;1.10;;;31.40;59.50;;;;;;5035988;28;20037;-71
2022/08/03 12:23:22;;;;;;;1.80;1.10;;;31.50;60.20;;;;;;5041331;28;20044;-72
2022/08/03 12:26:04;;;;;;;0.90;0.90;;;31.50;58.60;;;;;;5024381;28;20048;-70
2022/08/03 12:28:36;;;;;;;1.25;0.98;;;31.60;58.90;;;;;;5029792;28;20497;-72
2022/08/03 12:31:08;;;;;;;1.37;1.20;;;31.70;60.60;;;;;;5015568;28;20045;-70
2022/08/03 12:34:01;;;;;;;2.70;0.90;;;31.80;59.20;;;;;;5046097;28;20299;-71
2022/08/03 12:36:35;;;;;;;0.90;0.90;;;31.90;59.50;;;;;;5012200;28;20068;-71
2022/08/03 12:39:08;;;;;;;1.00;0.95;;;31.90;59.20;;;;;;5018625;28;20041;-71
2022/08/03 12:41:39;;;;;;;1.17;1.00;;;32.00;58.00;;;;;;5035816;22;20050;-69
2022/08/03 12:44:11;;;;;;;1.05;0.90;;;32.10;57.90;;;;;;4993823;28;20053;-70
2022/08/03 12:46:43;;;;;;;1.70;1.40;;;32.20;57.10;;;;;;5008879;28;20049;-69
2022/08/03 12:49:17;;;;;;;1.10;1.00;;;32.20;57.70;;;;;;5011869;28;20605;-69
2022/08/03 12:51:44;;;;;;;2.92;1.10;;;32.20;57.60;;;;;;5015935;28;20037;-69
2022/08/03 12:54:17;;;;;;;2.75;1.02;;;32.30;58.60;;;;;;5007379;28;20046;-69
2022/08/03 12:56:56;;;;;;;1.40;1.13;;;32.30;57.70;;;;;;4994743;28;20030;-69
2022/08/03 12:59:30;;;;;;;1.75;0.90;;;32.50;57.80;;;;;;5010572;28;20516;-69
2022/08/03 13:02:03;;;;;;;3.55;1.00;;;32.50;55.00;;;;;;5011915;28;20044;-69
2022/08/03 13:04:36;;;;;;;1.85;1.75;;;32.50;56.40;;;;;;5009069;28;20153;-69
2022/08/03 13:07:09;;;;;;;4.05;2.28;;;32.40;56.70;;;;;;5008192;28;20046;-69
2022/08/03 13:09:55;;;;;;;1.10;1.00;;;32.60;57.20;;;;;;5008322;28;20054;-69
2022/08/03 13:12:28;;;;;;;2.45;1.10;;;32.60;55.90;;;;;;5014089;28;20038;-69
2022/08/03 13:15:00;;;;;;;1.10;1.00;;;32.70;54.60;;;;;;5007284;28;20042;-69
2022/08/03 13:17:32;;;;;;;2.05;0.85;;;32.60;54.90;;;;;;5010379;28;20072;-70
2022/08/03 13:20:04;;;;;;;2.50;1.35;;;32.80;54.50;;;;;;5009996;28;20045;-70
2022/08/03 13:22:36;;;;;;;1.00;0.90;;;32.90;53.60;;;;;;5014602;28;20508;-70
2022/08/03 13:25:08;;;;;;;3.35;1.08;;;33.10;52.50;;;;;;5009750;28;20545;-69
2022/08/03 13:27:40;;;;;;;3.35;0.85;;;33.20;53.00;;;;;;5008390;28;20038;-70
2022/08/03 13:30:12;;;;;;;1.07;1.00;;;33.20;52.60;;;;;;5008123;28;20052;-69
2022/08/03 13:32:44;;;;;;;2.25;1.00;;;33.30;52.20;;;;;;5014888;28;20385;-69
2022/08/03 13:35:15;;;;;;;1.67;0.98;;;33.30;51.60;;;;;;5006401;28;20097;-70